Time;durP1;ratioP1;P1;durP2;ratioP2;P2;SDS_P1;SDS_P2;PMS_P1;PMS_P2;Temp;Humidity;BMP_temperature;BMP_pressure;BME280_temperature;BME280_humidity;BME280_pressure;Samples;Min_cycle;Max_cycle;Signal;HPM_P1;HPM_P2
2023/10/30 05:01:32;;;;;;;3.22;0.80;;;11.10;99.90;;;;;;5442791;23;20241;-71
2023/10/30 05:03:59;;;;;;;2.67;1.17;;;11.10;99.90;;;;;;4965276;28;20293;-71
2023/10/30 05:06:25;;;;;;;0.90;0.90;;;11.10;99.90;;;;;;4969444;28;20905;-71
2023/10/30 05:08:52;;;;;;;3.15;1.13;;;11.10;99.90;;;;;;4969424;28;20240;-73
2023/10/30 05:11:19;;;;;;;0.70;0.70;;;11.10;99.90;;;;;;4962705;28;20238;-71
2023/10/30 05:13:45;;;;;;;5.35;1.02;;;11.10;99.90;;;;;;4965291;28;20207;-71
2023/10/30 05:16:12;;;;;;;5.50;1.10;;;11.10;99.90;;;;;;4987690;23;20550;-70
2023/10/30 05:18:41;;;;;;;1.55;1.20;;;11.10;99.90;;;;;;4967273;28;20322;-73
2023/10/30 05:21:07;;;;;;;3.38;1.45;;;11.10;99.90;;;;;;4964810;28;20208;-72
2023/10/30 05:23:34;;;;;;;1.67;0.90;;;11.00;99.90;;;;;;4972869;28;20205;-71
2023/10/30 05:26:01;;;;;;;2.25;1.05;;;11.10;99.90;;;;;;4970302;28;20209;-72
2023/10/30 05:28:28;;;;;;;0.60;0.60;;;11.00;99.90;;;;;;4954328;28;20243;-72
2023/10/30 05:30:55;;;;;;;1.90;1.30;;;11.00;99.90;;;;;;4952983;28;20205;-72
2023/10/30 05:33:22;;;;;;;1.85;1.40;;;11.00;99.90;;;;;;4951588;28;20206;-71
2023/10/30 05:35:53;;;;;;;0.88;0.88;;;11.00;99.90;;;;;;4950852;28;20304;-72
2023/10/30 05:38:19;;;;;;;2.70;1.33;;;11.00;99.90;;;;;;4945029;29;20223;-71
2023/10/30 05:40:46;;;;;;;2.25;0.80;;;11.00;99.90;;;;;;4955307;28;20594;-71
2023/10/30 05:43:13;;;;;;;1.58;0.88;;;11.10;99.90;;;;;;4952375;28;20205;-72
2023/10/30 05:45:40;;;;;;;2.08;0.65;;;11.10;99.90;;;;;;4943387;28;20721;-72
2023/10/30 05:48:07;;;;;;;5.72;1.20;;;11.10;99.90;;;;;;4942374;29;20592;-72
2023/10/30 05:50:34;;;;;;;1.10;1.10;;;11.10;99.90;;;;;;4950844;28;20206;-70
2023/10/30 05:53:02;;;;;;;1.70;1.60;;;11.10;99.90;;;;;;4952939;28;20254;-71
2023/10/30 05:55:28;;;;;;;4.25;1.65;;;11.10;99.90;;;;;;4937406;28;20222;-71
2023/10/30 05:57:55;;;;;;;1.25;0.95;;;11.00;99.90;;;;;;4948749;28;20332;-72
2023/10/30 06:00:22;;;;;;;5.30;1.20;;;11.00;99.90;;;;;;4947686;28;20677;-72
2023/10/30 06:02:49;;;;;;;1.90;0.95;;;11.10;99.90;;;;;;4953015;28;20204;-72
2023/10/30 06:05:16;;;;;;;1.00;1.00;;;11.10;99.90;;;;;;4948804;28;20220;-72
2023/10/30 06:07:43;;;;;;;3.35;1.10;;;11.00;99.90;;;;;;4940623;28;20238;-72
2023/10/30 06:10:13;;;;;;;3.45;1.13;;;11.10;99.90;;;;;;4948086;28;20234;-72
2023/10/30 06:12:40;;;;;;;0.93;0.80;;;11.10;99.90;;;;;;4949843;28;20531;-71
2023/10/30 06:15:09;;;;;;;2.45;0.98;;;11.10;99.90;;;;;;4950265;28;20227;-72
2023/10/30 06:17:36;;;;;;;2.15;0.63;;;11.00;99.90;;;;;;4952632;28;20325;-72
2023/10/30 06:20:03;;;;;;;2.13;1.23;;;11.00;99.90;;;;;;4943748;29;20199;-72
2023/10/30 06:22:30;;;;;;;4.47;0.93;;;11.00;99.90;;;;;;4938772;29;20216;-72
2023/10/30 06:24:58;;;;;;;1.05;0.88;;;11.00;99.90;;;;;;4952348;28;20206;-73
2023/10/30 06:27:26;;;;;;;2.83;0.82;;;11.00;99.90;;;;;;4948028;28;20326;-71
2023/10/30 06:29:53;;;;;;;0.95;0.95;;;11.00;99.90;;;;;;4941995;29;20232;-71
2023/10/30 06:32:20;;;;;;;0.82;0.82;;;11.00;99.90;;;;;;4945747;29;20207;-71
2023/10/30 06:34:46;;;;;;;1.40;1.30;;;11.00;99.90;;;;;;4952660;29;20220;-72
2023/10/30 06:37:14;;;;;;;0.90;0.90;;;11.00;99.90;;;;;;4953539;29;20577;-71
2023/10/30 06:39:41;;;;;;;0.85;0.82;;;11.00;99.90;;;;;;4953694;29;20209;-72
2023/10/30 06:42:08;;;;;;;0.95;0.95;;;11.00;99.90;;;;;;4953386;29;20210;-72
2023/10/30 06:44:36;;;;;;;1.75;1.30;;;11.00;99.90;;;;;;4953209;28;20207;-72
2023/10/30 06:47:03;;;;;;;1.02;0.90;;;11.00;99.90;;;;;;4952473;28;20228;-72
2023/10/30 06:49:29;;;;;;;2.42;1.10;;;11.10;99.90;;;;;;4947223;29;20231;-71
2023/10/30 06:51:56;;;;;;;4.00;1.10;;;11.10;99.90;;;;;;4952790;29;20220;-73
2023/10/30 06:54:23;;;;;;;3.55;1.00;;;11.10;99.90;;;;;;4954075;29;20587;-72
2023/10/30 06:56:50;;;;;;;3.15;1.27;;;11.10;99.90;;;;;;4952066;29;20571;-71
2023/10/30 06:59:16;;;;;;;1.27;0.60;;;11.10;99.90;;;;;;4951610;29;20227;-72
2023/10/30 07:01:46;;;;;;;1.27;0.82;;;11.10;99.90;;;;;;4944058;28;20211;-72
2023/10/30 07:04:13;;;;;;;2.55;1.60;;;11.10;99.90;;;;;;4940345;29;20319;-72
2023/10/30 07:06:41;;;;;;;3.13;1.40;;;11.20;99.90;;;;;;4938798;28;20309;-72
2023/10/30 07:09:08;;;;;;;1.20;1.20;;;11.20;99.90;;;;;;4937400;29;20232;-71
2023/10/30 07:11:36;;;;;;;2.67;1.30;;;11.20;99.90;;;;;;4945923;29;20211;-72
2023/10/30 07:14:03;;;;;;;1.80;1.70;;;11.20;99.90;;;;;;4935566;29;20216;-72
2023/10/30 07:16:30;;;;;;;3.50;1.05;;;11.20;99.90;;;;;;4940197;29;20273;-72
2023/10/30 07:18:59;;;;;;;1.75;1.15;;;11.20;99.90;;;;;;4933760;29;20204;-72
2023/10/30 07:21:26;;;;;;;1.75;1.05;;;11.30;99.90;;;;;;4941242;29;20210;-70
2023/10/30 07:23:54;;;;;;;3.80;1.10;;;11.30;99.90;;;;;;4937711;29;20209;-72
2023/10/30 07:26:21;;;;;;;2.53;1.15;;;11.30;99.90;;;;;;4938404;28;20216;-71
2023/10/30 07:28:48;;;;;;;2.43;0.83;;;11.30;99.90;;;;;;4945925;28;20228;-71
2023/10/30 07:31:15;;;;;;;2.53;0.93;;;11.30;99.90;;;;;;4949447;29;20476;-71
2023/10/30 07:33:41;;;;;;;4.15;0.90;;;11.40;99.90;;;;;;4948332;28;20475;-69
2023/10/30 07:36:10;;;;;;;1.75;1.20;;;11.40;99.90;;;;;;4936034;28;20551;-71
2023/10/30 07:38:37;;;;;;;3.20;1.40;;;11.40;99.90;;;;;;4939888;29;20676;-71
2023/10/30 07:41:05;;;;;;;2.83;1.27;;;11.50;99.90;;;;;;4942595;29;20567;-71
2023/10/30 07:43:32;;;;;;;2.70;1.48;;;11.50;99.90;;;;;;4939256;29;20471;-72
2023/10/30 07:45:59;;;;;;;2.90;1.30;;;11.50;99.90;;;;;;4936957;29;20679;-71
2023/10/30 07:48:26;;;;;;;3.27;1.43;;;11.50;99.90;;;;;;4951059;28;20566;-72
2023/10/30 07:50:54;;;;;;;2.47;1.33;;;11.60;99.90;;;;;;4949280;29;20459;-72
2023/10/30 07:53:22;;;;;;;3.58;1.50;;;11.60;99.90;;;;;;4941292;29;20469;-72
2023/10/30 07:55:49;;;;;;;1.88;1.35;;;11.60;99.90;;;;;;4942259;29;20213;-72
2023/10/30 07:58:16;;;;;;;1.27;0.83;;;11.60;99.90;;;;;;4942484;29;20259;-72
2023/10/30 08:00:43;;;;;;;1.43;1.00;;;11.60;99.90;;;;;;4938351;29;20480;-71
2023/10/30 08:03:09;;;;;;;2.40;1.30;;;11.60;99.90;;;;;;4943299;29;20506;-71
2023/10/30 08:05:36;;;;;;;1.40;0.97;;;11.50;99.90;;;;;;4945192;29;20476;-72
2023/10/30 08:08:03;;;;;;;2.47;0.90;;;11.60;99.90;;;;;;4936257;29;20499;-71
2023/10/30 08:10:31;;;;;;;1.57;1.47;;;11.50;99.90;;;;;;4938959;29;20499;-71
2023/10/30 08:12:58;;;;;;;1.70;1.60;;;11.50;99.90;;;;;;4943369;28;20590;-71
2023/10/30 08:15:25;;;;;;;3.00;1.05;;;11.50;99.90;;;;;;4949104;29;20489;-72
2023/10/30 08:17:53;;;;;;;1.60;1.00;;;11.50;99.90;;;;;;4942776;28;20311;-72
2023/10/30 08:20:20;;;;;;;2.30;1.13;;;11.50;99.90;;;;;;4944483;28;20850;-72
2023/10/30 08:22:46;;;;;;;2.80;1.23;;;11.50;99.90;;;;;;4941788;28;20661;-72
2023/10/30 08:25:13;;;;;;;1.53;1.33;;;11.50;99.90;;;;;;4955134;28;20214;-72
2023/10/30 08:27:41;;;;;;;1.15;1.05;;;11.50;99.90;;;;;;4939959;29;20514;-71
2023/10/30 08:30:09;;;;;;;2.05;1.48;;;11.50;99.90;;;;;;4940936;28;20266;-72
2023/10/30 08:32:37;;;;;;;0.93;0.93;;;11.50;99.90;;;;;;4947041;28;20213;-71
2023/10/30 08:35:05;;;;;;;1.20;1.10;;;11.60;99.90;;;;;;4936502;29;20472;-72
2023/10/30 08:37:31;;;;;;;0.83;0.83;;;11.60;99.90;;;;;;4946833;29;20498;-71
2023/10/30 08:39:58;;;;;;;2.27;1.30;;;11.60;99.90;;;;;;4938025;29;20479;-71
2023/10/30 08:42:25;;;;;;;4.90;1.10;;;11.70;99.90;;;;;;4945539;28;20471;-71
2023/10/30 08:44:53;;;;;;;4.47;1.00;;;11.80;99.90;;;;;;4950173;28;20297;-71
2023/10/30 08:47:19;;;;;;;1.30;1.00;;;11.90;99.90;;;;;;4945811;29;20488;-70
2023/10/30 08:49:46;;;;;;;2.77;0.87;;;12.00;99.90;;;;;;4953160;28;20491;-71
2023/10/30 08:52:13;;;;;;;2.83;1.50;;;12.10;99.90;;;;;;4954028;29;20498;-72
2023/10/30 08:54:43;;;;;;;1.27;1.08;;;12.10;99.90;;;;;;4950289;29;20605;-71
2023/10/30 08:57:10;;;;;;;1.13;1.13;;;12.20;99.90;;;;;;4949674;28;20228;-72
2023/10/30 08:59:38;;;;;;;8.43;1.50;;;12.20;99.90;;;;;;4950275;29;20985;-72
2023/10/30 09:02:07;;;;;;;3.03;1.57;;;12.30;99.90;;;;;;4944569;29;20205;-72
2023/10/30 09:04:34;;;;;;;1.07;0.90;;;12.40;99.90;;;;;;4951244;29;20468;-71
2023/10/30 09:07:01;;;;;;;4.23;1.20;;;12.40;99.90;;;;;;4949708;29;20498;-72
2023/10/30 09:09:27;;;;;;;2.07;1.27;;;12.50;99.90;;;;;;4940080;29;20488;-71
2023/10/30 09:11:55;;;;;;;1.30;1.20;;;12.50;99.90;;;;;;4947791;28;20495;-71
2023/10/30 09:14:22;;;;;;;1.57;1.07;;;12.60;99.90;;;;;;4954580;29;20477;-72
2023/10/30 09:16:48;;;;;;;1.03;1.03;;;12.60;99.90;;;;;;4937475;29;20499;-71
2023/10/30 09:19:16;;;;;;;0.80;0.80;;;12.70;99.90;;;;;;4944345;29;20468;-72
2023/10/30 09:21:43;;;;;;;3.60;0.93;;;12.70;99.90;;;;;;4948969;28;20814;-71
2023/10/30 09:24:10;;;;;;;2.50;1.10;;;12.80;99.90;;;;;;4949363;29;20569;-71
2023/10/30 09:26:37;;;;;;;1.80;1.60;;;12.80;99.90;;;;;;4953842;29;20487;-71
2023/10/30 09:29:03;;;;;;;2.77;0.90;;;12.90;99.90;;;;;;4949712;28;20480;-71
2023/10/30 09:31:31;;;;;;;2.97;1.13;;;12.90;99.90;;;;;;4940165;28;20995;-71
2023/10/30 09:33:58;;;;;;;1.10;1.10;;;12.90;99.90;;;;;;4945124;29;20970;-72
2023/10/30 09:36:27;;;;;;;1.53;1.13;;;13.00;99.90;;;;;;4946646;28;20849;-71
2023/10/30 09:38:54;;;;;;;1.10;0.93;;;13.00;99.90;;;;;;4943348;29;20473;-72
2023/10/30 09:41:21;;;;;;;2.00;1.03;;;13.00;99.90;;;;;;4952828;28;20473;-72
2023/10/30 09:43:49;;;;;;;1.30;1.30;;;13.10;99.90;;;;;;4953185;29;20529;-72
2023/10/30 09:46:16;;;;;;;1.10;0.83;;;13.20;99.90;;;;;;4936745;29;20465;-73
2023/10/30 09:48:45;;;;;;;4.57;1.20;;;13.30;99.90;;;;;;4947483;29;20468;-71
2023/10/30 09:51:12;;;;;;;1.77;1.10;;;13.30;99.90;;;;;;4949234;28;20499;-72
2023/10/30 09:53:40;;;;;;;2.90;1.00;;;13.30;99.90;;;;;;4952856;28;20472;-71
2023/10/30 09:56:08;;;;;;;1.60;0.83;;;13.40;99.90;;;;;;4942272;29;20474;-72
2023/10/30 09:58:37;;;;;;;0.93;0.93;;;13.40;99.90;;;;;;4935610;29;20485;-71
2023/10/30 10:01:04;;;;;;;1.27;0.80;;;13.50;99.90;;;;;;4939785;29;20461;-72
2023/10/30 10:03:31;;;;;;;1.70;1.00;;;13.50;99.90;;;;;;4942266;28;20468;-71
2023/10/30 10:05:59;;;;;;;2.50;1.37;;;13.60;99.90;;;;;;4948375;28;20475;-71
2023/10/30 10:08:26;;;;;;;2.07;1.40;;;13.60;99.90;;;;;;4947049;28;20481;-72
2023/10/30 10:10:59;;;;;;;4.93;1.20;;;13.70;99.90;;;;;;4944369;29;20489;-71
2023/10/30 10:13:27;;;;;;;1.20;1.10;;;13.70;99.90;;;;;;4944767;28;20524;-71
2023/10/30 10:15:54;;;;;;;0.80;0.80;;;13.70;99.90;;;;;;4954106;28;20479;-72
2023/10/30 10:18:25;;;;;;;4.77;1.00;;;13.80;99.90;;;;;;4942838;28;20507;-73
2023/10/30 10:20:56;;;;;;;2.90;1.13;;;13.80;99.90;;;;;;4940502;28;20469;-72
2023/10/30 10:23:23;;;;;;;1.77;1.30;;;13.80;99.90;;;;;;4942584;28;20492;-70
2023/10/30 10:25:55;;;;;;;2.63;1.30;;;13.90;99.90;;;;;;4935983;28;20524;-72
2023/10/30 10:28:23;;;;;;;0.97;0.90;;;13.90;99.90;;;;;;4944058;29;20500;-71
2023/10/30 10:30:51;;;;;;;2.80;1.50;;;13.90;99.90;;;;;;4946600;28;21035;-72
2023/10/30 10:33:20;;;;;;;3.77;3.57;;;13.90;99.90;;;;;;4945292;28;20474;-72
2023/10/30 10:35:51;;;;;;;1.80;1.60;;;14.00;99.90;;;;;;4943456;28;20474;-72
2023/10/30 10:38:18;;;;;;;5.23;1.30;;;14.00;99.90;;;;;;4943023;28;20489;-72
2023/10/30 10:40:47;;;;;;;1.60;1.57;;;14.00;99.90;;;;;;4934846;29;20807;-72
2023/10/30 10:43:15;;;;;;;3.53;1.20;;;14.10;99.90;;;;;;4945275;28;20580;-71
2023/10/30 10:45:44;;;;;;;4.73;1.80;;;14.10;99.90;;;;;;4940561;29;20473;-72
2023/10/30 10:48:11;;;;;;;2.33;1.03;;;14.20;99.90;;;;;;4941390;29;20497;-71
2023/10/30 10:50:38;;;;;;;8.23;1.30;;;14.10;99.90;;;;;;4938524;29;20875;-72
2023/10/30 10:53:06;;;;;;;3.60;1.23;;;14.10;99.90;;;;;;4940392;28;20477;-71
2023/10/30 10:55:40;;;;;;;1.10;1.10;;;14.10;99.90;;;;;;4940347;28;20478;-72
2023/10/30 10:58:09;;;;;;;1.83;1.17;;;14.10;99.90;;;;;;4941384;28;20518;-72
2023/10/30 11:00:41;;;;;;;2.40;1.53;;;14.20;99.90;;;;;;4943999;28;20481;-72
2023/10/30 11:03:10;;;;;;;3.67;1.60;;;14.20;99.90;;;;;;4939554;28;20499;-73
2023/10/30 11:05:38;;;;;;;1.30;1.00;;;14.20;99.90;;;;;;4936776;28;20470;-72
2023/10/30 11:08:20;;;;;;;1.80;0.63;;;14.30;99.90;;;;;;4939022;29;20868;-72
2023/10/30 11:10:51;;;;;;;3.37;1.00;;;14.40;99.90;;;;;;4937881;28;20516;-72
2023/10/30 11:13:26;;;;;;;0.83;0.83;;;14.40;99.90;;;;;;4941041;28;20471;-72
2023/10/30 11:16:01;;;;;;;4.83;1.23;;;14.50;99.90;;;;;;4950080;29;20474;-70
2023/10/30 11:18:29;;;;;;;1.73;1.50;;;14.50;99.90;;;;;;4950290;29;20913;-69
2023/10/30 11:21:10;;;;;;;2.87;1.07;;;14.50;99.90;;;;;;4948879;29;20471;-69
2023/10/30 11:23:52;;;;;;;2.60;1.40;;;14.50;99.90;;;;;;4949426;28;20477;-69
2023/10/30 11:26:39;;;;;;;4.33;3.10;;;14.60;99.90;;;;;;4948219;29;20485;-70
2023/10/30 11:29:07;;;;;;;1.57;1.00;;;14.60;99.90;;;;;;4982009;23;20492;-73
2023/10/30 11:31:52;;;;;;;6.00;0.97;;;14.60;99.90;;;;;;4965384;28;20487;-73
2023/10/30 11:34:25;;;;;;;2.10;1.17;;;14.70;99.90;;;;;;4963728;28;20555;-74
2023/10/30 11:36:52;;;;;;;1.53;1.47;;;14.70;99.90;;;;;;4968383;28;20469;-73
2023/10/30 11:39:21;;;;;;;2.73;1.50;;;14.80;99.90;;;;;;4968458;28;20486;-73
2023/10/30 11:41:52;;;;;;;1.90;1.30;;;14.90;99.90;;;;;;4969019;28;20554;-73
2023/10/30 11:44:20;;;;;;;1.87;1.20;;;14.90;99.90;;;;;;4969608;28;20529;-74
2023/10/30 11:46:51;;;;;;;5.47;1.63;;;14.90;99.90;;;;;;4964413;28;20474;-72
2023/10/30 11:49:22;;;;;;;3.00;1.90;;;15.00;99.90;;;;;;4967600;28;20586;-73
2023/10/30 11:51:54;;;;;;;2.00;1.23;;;15.10;99.90;;;;;;4971140;28;20498;-74
2023/10/30 11:54:24;;;;;;;3.87;1.07;;;15.10;99.90;;;;;;4971517;28;21013;-73
2023/10/30 11:56:52;;;;;;;0.80;0.80;;;15.10;99.90;;;;;;4971127;28;20529;-74
2023/10/30 11:59:21;;;;;;;1.63;1.07;;;15.10;99.90;;;;;;4968256;28;21060;-74
2023/10/30 12:01:48;;;;;;;3.92;1.85;;;15.10;99.90;;;;;;4965282;28;20558;-74
2023/10/30 12:04:22;;;;;;;4.17;1.50;;;15.20;99.90;;;;;;4965911;28;20218;-74
2023/10/30 12:06:49;;;;;;;2.97;0.97;;;15.20;99.90;;;;;;4971061;28;20474;-73
2023/10/30 12:09:16;;;;;;;0.70;0.70;;;15.10;99.90;;;;;;4971350;28;20494;-74
2023/10/30 12:11:43;;;;;;;1.90;0.80;;;15.10;99.90;;;;;;4970126;28;20573;-75
2023/10/30 12:14:10;;;;;;;6.00;1.70;;;15.10;99.90;;;;;;4969679;28;20482;-74
2023/10/30 12:16:37;;;;;;;2.20;0.87;;;15.20;99.90;;;;;;4973006;28;20542;-74
2023/10/30 12:19:04;;;;;;;1.07;1.07;;;15.10;99.90;;;;;;4974645;28;20494;-74
2023/10/30 12:21:33;;;;;;;0.80;0.73;;;15.10;99.90;;;;;;4974923;28;20470;-72
2023/10/30 12:24:00;;;;;;;1.50;1.40;;;15.20;99.90;;;;;;4972841;28;20492;-74
2023/10/30 12:26:27;;;;;;;6.80;1.60;;;15.20;99.90;;;;;;4975664;28;20482;-74
2023/10/30 12:28:59;;;;;;;3.20;1.80;;;15.20;99.90;;;;;;4972720;28;20489;-74
2023/10/30 12:31:26;;;;;;;1.77;1.00;;;15.20;99.90;;;;;;4971502;28;20847;-73
2023/10/30 12:34:14;;;;;;;1.30;1.13;;;15.30;99.90;;;;;;4977452;28;20474;-73
2023/10/30 12:36:42;;;;;;;2.23;1.27;;;15.30;99.90;;;;;;4976834;28;20524;-73
2023/10/30 12:39:16;;;;;;;1.50;1.17;;;15.30;99.90;;;;;;4973312;28;20549;-74
2023/10/30 12:41:44;;;;;;;1.20;1.07;;;15.20;99.90;;;;;;4974932;28;20549;-74
2023/10/30 12:44:11;;;;;;;4.97;1.57;;;15.30;99.90;;;;;;4973731;28;20467;-74
2023/10/30 12:46:38;;;;;;;1.10;1.03;;;15.30;99.90;;;;;;4970495;28;20468;-74
2023/10/30 12:49:04;;;;;;;2.00;0.90;;;15.30;99.90;;;;;;4972945;28;20486;-75
2023/10/30 12:51:34;;;;;;;1.50;1.20;;;15.30;99.90;;;;;;4971390;28;20493;-74
2023/10/30 12:54:03;;;;;;;5.67;0.80;;;15.30;99.90;;;;;;4972597;28;20467;-74
2023/10/30 12:56:29;;;;;;;1.80;1.30;;;15.30;99.90;;;;;;4975555;28;20473;-74
2023/10/30 12:58:56;;;;;;;3.70;1.17;;;15.30;99.90;;;;;;4973977;28;20494;-74
2023/10/30 13:01:23;;;;;;;1.60;0.87;;;15.30;99.90;;;;;;4975580;28;20459;-74
2023/10/30 13:03:50;;;;;;;2.30;0.70;;;15.30;99.90;;;;;;4974190;28;20470;-74
2023/10/30 13:06:17;;;;;;;4.47;0.90;;;15.30;99.90;;;;;;4975208;28;20551;-74
2023/10/30 13:08:43;;;;;;;1.43;1.20;;;15.40;99.90;;;;;;4975038;28;20492;-74
2023/10/30 13:11:13;;;;;;;1.70;1.60;;;15.40;99.90;;;;;;4975415;28;20490;-75
2023/10/30 13:13:40;;;;;;;1.77;1.20;;;15.40;99.90;;;;;;4974082;28;20478;-74
2023/10/30 13:16:08;;;;;;;1.70;0.80;;;15.40;99.90;;;;;;4972922;28;20482;-73
2023/10/30 13:18:35;;;;;;;1.17;1.07;;;15.40;99.90;;;;;;4973247;28;20498;-74
2023/10/30 13:21:02;;;;;;;4.37;1.20;;;15.40;99.90;;;;;;4972084;28;20466;-75
2023/10/30 13:23:30;;;;;;;1.90;0.90;;;15.40;99.90;;;;;;4973821;28;20470;-73
2023/10/30 13:25:57;;;;;;;3.10;1.00;;;15.40;99.90;;;;;;4972978;28;20882;-74
2023/10/30 13:28:25;;;;;;;1.10;1.10;;;15.40;99.90;;;;;;4967599;28;20501;-73
2023/10/30 13:30:53;;;;;;;1.37;1.27;;;15.40;99.90;;;;;;4973879;28;20494;-73
2023/10/30 13:33:20;;;;;;;7.80;1.40;;;15.40;99.90;;;;;;4971602;28;20541;-73
2023/10/30 13:35:46;;;;;;;2.73;1.67;;;15.30;99.90;;;;;;4973729;28;20475;-73
2023/10/30 13:38:13;;;;;;;2.23;1.20;;;15.30;99.90;;;;;;4974256;28;20497;-73
2023/10/30 13:40:40;;;;;;;3.93;0.87;;;15.30;99.90;;;;;;4974463;28;20838;-73
2023/10/30 13:43:07;;;;;;;2.97;0.90;;;15.30;99.90;;;;;;4973718;28;20481;-74
2023/10/30 13:45:35;;;;;;;2.63;0.90;;;15.30;99.90;;;;;;4967331;28;20557;-74
2023/10/30 13:48:01;;;;;;;0.90;0.80;;;15.30;99.90;;;;;;4973857;28;20490;-74
2023/10/30 13:50:28;;;;;;;3.13;1.10;;;15.40;99.90;;;;;;4974800;28;20482;-74
2023/10/30 13:52:55;;;;;;;0.97;0.97;;;15.40;99.90;;;;;;4974261;28;20475;-74
2023/10/30 13:55:21;;;;;;;0.97;0.97;;;15.40;99.90;;;;;;4971990;28;20571;-74
2023/10/30 13:57:48;;;;;;;2.13;0.67;;;15.40;99.90;;;;;;4973973;28;21009;-73
2023/10/30 14:00:16;;;;;;;1.17;1.17;;;15.40;99.90;;;;;;4974559;28;20466;-74
2023/10/30 14:02:44;;;;;;;2.67;0.93;;;15.50;99.90;;;;;;4972307;28;20963;-74
2023/10/30 14:05:11;;;;;;;2.23;1.10;;;15.50;99.90;;;;;;4974538;28;20562;-74
2023/10/30 14:07:38;;;;;;;2.90;1.23;;;15.50;99.90;;;;;;4973393;28;20495;-73
2023/10/30 14:10:06;;;;;;;2.03;1.43;;;15.50;99.90;;;;;;4968424;28;20467;-74
2023/10/30 14:12:32;;;;;;;3.00;1.20;;;15.50;99.90;;;;;;4971933;28;21045;-74
2023/10/30 14:15:00;;;;;;;1.10;1.10;;;15.50;99.90;;;;;;4971301;28;20470;-74
2023/10/30 14:17:27;;;;;;;1.63;1.53;;;15.50;99.90;;;;;;4973166;28;21103;-74
2023/10/30 14:19:55;;;;;;;3.13;1.53;;;15.40;99.90;;;;;;4972251;28;20479;-74
2023/10/30 14:22:22;;;;;;;1.27;1.27;;;15.30;99.90;;;;;;4973443;28;20465;-74
2023/10/30 14:24:49;;;;;;;1.63;1.23;;;15.20;99.90;;;;;;4972022;28;20473;-72
2023/10/30 14:27:15;;;;;;;2.20;1.30;;;15.10;99.90;;;;;;4972165;28;20543;-72
2023/10/30 14:29:42;;;;;;;4.10;1.03;;;15.10;99.90;;;;;;4973340;28;20581;-72
2023/10/30 14:32:09;;;;;;;1.60;1.50;;;15.00;99.90;;;;;;4970357;28;20496;-73
2023/10/30 14:34:35;;;;;;;2.00;1.40;;;14.90;99.90;;;;;;4972125;28;20487;-74
2023/10/30 14:37:05;;;;;;;2.70;1.20;;;14.80;99.90;;;;;;4972794;28;20954;-74
2023/10/30 14:39:31;;;;;;;2.67;1.30;;;14.80;99.90;;;;;;4973264;28;20623;-73
2023/10/30 14:41:58;;;;;;;5.17;1.20;;;14.80;99.90;;;;;;4971441;28;20465;-73
2023/10/30 14:44:25;;;;;;;2.30;1.10;;;14.80;99.90;;;;;;4968797;28;20838;-74
2023/10/30 14:46:52;;;;;;;1.37;1.27;;;14.80;99.90;;;;;;4972844;28;20465;-73
2023/10/30 14:49:19;;;;;;;4.83;1.60;;;14.80;99.90;;;;;;4971323;28;20515;-73
2023/10/30 14:51:45;;;;;;;1.27;1.27;;;14.80;99.90;;;;;;4972709;28;20485;-73
2023/10/30 14:54:14;;;;;;;2.00;1.27;;;14.80;99.90;;;;;;4970589;28;20488;-73
2023/10/30 14:56:40;;;;;;;5.17;1.50;;;14.80;99.90;;;;;;4971230;28;20476;-73
2023/10/30 14:59:07;;;;;;;1.87;1.87;;;14.70;99.90;;;;;;4972493;28;20590;-74
2023/10/30 15:01:34;;;;;;;1.40;1.30;;;14.70;99.90;;;;;;4971692;28;20477;-73
2023/10/30 15:04:01;;;;;;;4.87;1.57;;;14.60;99.90;;;;;;4970296;28;20463;-74
2023/10/30 15:06:27;;;;;;;1.13;0.97;;;14.60;99.90;;;;;;4967819;28;20474;-74
2023/10/30 15:08:54;;;;;;;1.60;1.50;;;14.60;99.90;;;;;;4971525;28;20450;-75
2023/10/30 15:11:22;;;;;;;1.93;1.47;;;14.60;99.90;;;;;;4970414;28;20239;-74
2023/10/30 15:13:49;;;;;;;2.87;1.43;;;14.50;99.90;;;;;;4969615;28;20466;-74
2023/10/30 15:16:16;;;;;;;6.27;1.80;;;14.50;99.90;;;;;;4974136;28;20489;-74
2023/10/30 15:18:43;;;;;;;2.00;1.60;;;14.40;99.90;;;;;;4973430;28;20549;-74
2023/10/30 15:21:10;;;;;;;1.37;1.33;;;14.40;99.90;;;;;;4971699;28;20873;-74
2023/10/30 15:23:36;;;;;;;1.93;1.60;;;14.30;99.90;;;;;;4965836;28;21059;-74
2023/10/30 15:26:04;;;;;;;2.77;2.30;;;14.30;99.90;;;;;;4971845;28;20523;-75
2023/10/30 15:28:32;;;;;;;1.23;1.23;;;14.20;99.90;;;;;;4971491;28;20500;-75
2023/10/30 15:50:36;;;;;;;2.00;1.40;;;14.00;99.90;;;;;;5102530;27;20599;-73
2023/10/30 15:53:03;;;;;;;3.17;2.20;;;13.80;99.90;;;;;;5062345;28;20461;-73
2023/10/30 15:55:30;;;;;;;2.93;1.80;;;13.80;99.90;;;;;;5061871;28;20472;-73
2023/10/30 15:57:57;;;;;;;6.70;2.00;;;13.80;99.90;;;;;;5054262;28;20465;-74
2023/10/30 16:00:24;;;;;;;3.80;1.60;;;13.70;99.90;;;;;;5060054;28;20519;-73
2023/10/30 16:02:50;;;;;;;1.53;1.53;;;13.60;99.90;;;;;;5065826;28;20458;-74
2023/10/30 16:05:17;;;;;;;4.77;2.37;;;13.60;99.90;;;;;;5066416;28;20455;-73
2023/10/30 16:07:46;;;;;;;2.70;2.50;;;13.50;99.90;;;;;;5063322;28;20467;-73
2023/10/30 16:10:14;;;;;;;1.97;1.23;;;13.50;99.90;;;;;;5058239;28;20490;-73
2023/10/30 16:12:40;;;;;;;3.47;1.70;;;13.50;99.90;;;;;;5056409;28;20541;-73
2023/10/30 16:15:09;;;;;;;1.80;1.70;;;13.40;99.90;;;;;;5060366;28;20475;-74
2023/10/30 16:17:36;;;;;;;1.50;1.40;;;13.40;99.90;;;;;;5065443;28;20927;-74
2023/10/30 16:20:05;;;;;;;4.43;1.60;;;13.30;99.90;;;;;;5064493;28;20484;-73
2023/10/30 16:22:34;;;;;;;7.00;2.10;;;13.30;99.90;;;;;;5062205;28;20521;-74
2023/10/30 16:25:02;;;;;;;1.87;1.77;;;13.20;99.90;;;;;;5062208;28;20474;-74
2023/10/30 16:27:29;;;;;;;1.93;1.93;;;13.20;99.90;;;;;;5057308;28;20464;-74
2023/10/30 16:29:56;;;;;;;2.00;1.83;;;13.20;99.90;;;;;;5065250;28;20595;-73
2023/10/30 16:32:23;;;;;;;4.07;1.80;;;13.20;99.90;;;;;;5065326;28;20471;-74
2023/10/30 16:34:49;;;;;;;4.80;2.00;;;13.10;99.90;;;;;;5062513;28;20464;-74
2023/10/30 16:37:16;;;;;;;6.50;3.17;;;13.10;99.90;;;;;;5058692;28;20476;-73
2023/10/30 16:39:43;;;;;;;5.30;1.67;;;13.00;99.90;;;;;;5058643;28;20503;-73
2023/10/30 16:42:11;;;;;;;6.43;2.30;;;13.10;99.90;;;;;;5055102;28;20952;-74
2023/10/30 16:44:38;;;;;;;5.70;2.60;;;13.00;99.90;;;;;;5057594;28;20927;-74
2023/10/30 16:47:05;;;;;;;7.87;3.00;;;13.00;99.90;;;;;;5052110;28;20479;-74
2023/10/30 16:49:31;;;;;;;3.40;3.07;;;13.00;99.90;;;;;;5051995;28;20903;-73
2023/10/30 16:51:59;;;;;;;5.23;2.40;;;12.90;99.90;;;;;;5042728;28;20474;-74
2023/10/30 16:54:25;;;;;;;2.47;2.47;;;12.90;99.90;;;;;;5039980;28;20472;-74
2023/10/30 16:56:52;;;;;;;2.30;1.70;;;12.90;99.90;;;;;;5046653;28;20476;-74
2023/10/30 16:59:20;;;;;;;2.20;2.10;;;12.90;99.90;;;;;;5042706;28;20474;-74
2023/10/30 17:01:47;;;;;;;2.73;2.50;;;12.90;99.90;;;;;;5040749;28;20496;-74
2023/10/30 17:04:14;;;;;;;4.30;3.20;;;12.90;99.90;;;;;;5047056;28;20840;-74
2023/10/30 17:06:40;;;;;;;4.50;3.40;;;12.90;99.90;;;;;;5051027;28;20467;-74
2023/10/30 17:09:07;;;;;;;5.47;3.20;;;12.90;99.90;;;;;;5039140;28;20496;-74
2023/10/30 17:11:34;;;;;;;3.40;3.10;;;12.90;99.90;;;;;;5035616;28;20616;-74
2023/10/30 17:14:01;;;;;;;3.27;2.77;;;12.90;99.90;;;;;;5040676;28;20840;-74
2023/10/30 17:16:29;;;;;;;3.27;2.97;;;12.90;99.90;;;;;;5035718;28;20471;-74
2023/10/30 17:18:56;;;;;;;3.63;3.37;;;12.90;99.90;;;;;;5039385;28;20483;-74
2023/10/30 17:21:22;;;;;;;5.60;2.50;;;12.90;99.90;;;;;;5047544;28;20585;-74
2023/10/30 17:23:49;;;;;;;6.00;2.97;;;12.90;99.90;;;;;;5046023;28;20476;-74
2023/10/30 17:26:16;;;;;;;3.43;3.27;;;12.90;99.90;;;;;;5043476;28;20464;-74
2023/10/30 17:28:43;;;;;;;3.23;3.00;;;12.90;99.90;;;;;;5050950;28;20847;-74
2023/10/30 17:31:10;;;;;;;2.60;2.50;;;12.80;99.90;;;;;;5050952;28;21042;-74
2023/10/30 17:33:38;;;;;;;4.37;4.00;;;12.90;99.90;;;;;;5050462;28;20828;-74
2023/10/30 17:36:05;;;;;;;2.30;2.27;;;12.90;99.90;;;;;;5047731;28;20788;-75
2023/10/30 17:38:32;;;;;;;3.80;2.47;;;12.90;99.90;;;;;;5046780;28;20465;-74
2023/10/30 17:40:59;;;;;;;3.23;2.97;;;12.80;99.90;;;;;;5054954;28;20472;-73
2023/10/30 17:43:25;;;;;;;3.13;2.90;;;12.80;99.90;;;;;;5066372;28;20517;-74
2023/10/30 17:45:54;;;;;;;4.10;2.57;;;12.80;99.90;;;;;;5058735;28;20469;-74
2023/10/30 17:48:21;;;;;;;6.27;3.40;;;12.80;99.90;;;;;;5054596;28;20461;-74
2023/10/30 17:50:49;;;;;;;4.07;3.30;;;12.80;99.90;;;;;;5049751;28;20481;-74
2023/10/30 17:53:16;;;;;;;3.10;2.57;;;12.80;99.90;;;;;;5056410;28;20493;-73
2023/10/30 17:55:45;;;;;;;4.03;2.90;;;12.70;99.90;;;;;;5053119;28;20994;-73
2023/10/30 17:58:12;;;;;;;4.60;4.20;;;12.70;99.90;;;;;;5052283;28;20555;-73
2023/10/30 18:00:38;;;;;;;3.60;3.30;;;12.70;99.90;;;;;;5053357;28;20523;-73
2023/10/30 18:03:05;;;;;;;2.93;2.83;;;12.60;99.90;;;;;;5050087;28;20468;-73
2023/10/30 18:05:33;;;;;;;7.40;2.63;;;12.60;99.90;;;;;;5054482;28;20552;-74
2023/10/30 18:08:01;;;;;;;3.27;2.20;;;12.70;99.90;;;;;;5051741;28;20468;-74
2023/10/30 18:10:28;;;;;;;3.13;2.93;;;12.70;99.90;;;;;;5047446;28;20506;-74